sensor_id;sensor_type;location;lat;lon;timestamp;P1;durP1;ratioP1;P2;durP2;ratioP2
2049;SDS011;8478;49.208;8.806;2023-03-23T00:00:44;6.40;;;5.90;;
2049;SDS011;8478;49.208;8.806;2023-03-23T00:03:09;6.80;;;6.30;;
2049;SDS011;8478;49.208;8.806;2023-03-23T00:05:35;5.53;;;5.13;;
2049;SDS011;8478;49.208;8.806;2023-03-23T00:08:02;5.93;;;5.53;;
2049;SDS011;8478;49.208;8.806;2023-03-23T00:10:28;5.40;;;5.00;;
2049;SDS011;8478;49.208;8.806;2023-03-23T00:12:58;6.50;;;5.83;;
2049;SDS011;8478;49.208;8.806;2023-03-23T00:15:27;5.60;;;5.27;;
2049;SDS011;8478;49.208;8.806;2023-03-23T00:17:58;5.70;;;5.20;;
2049;SDS011;8478;49.208;8.806;2023-03-23T00:20:29;5.37;;;4.97;;
2049;SDS011;8478;49.208;8.806;2023-03-23T00:23:04;4.50;;;4.20;;
2049;SDS011;8478;49.208;8.806;2023-03-23T00:25:31;5.77;;;5.27;;
2049;SDS011;8478;49.208;8.806;2023-03-23T00:27:57;5.80;;;5.27;;
2049;SDS011;8478;49.208;8.806;2023-03-23T00:30:23;5.90;;;5.50;;
2049;SDS011;8478;49.208;8.806;2023-03-23T00:32:49;4.87;;;4.47;;
2049;SDS011;8478;49.208;8.806;2023-03-23T00:35:16;5.47;;;5.07;;
2049;SDS011;8478;49.208;8.806;2023-03-23T00:37:42;5.53;;;5.13;;
2049;SDS011;8478;49.208;8.806;2023-03-23T00:40:09;5.37;;;4.97;;
2049;SDS011;8478;49.208;8.806;2023-03-23T00:42:35;5.40;;;5.03;;
2049;SDS011;8478;49.208;8.806;2023-03-23T00:45:03;6.73;;;6.00;;
2049;SDS011;8478;49.208;8.806;2023-03-23T00:47:35;6.30;;;5.83;;
2049;SDS011;8478;49.208;8.806;2023-03-23T00:50:02;6.13;;;5.63;;
2049;SDS011;8478;49.208;8.806;2023-03-23T00:52:30;5.73;;;5.33;;
2049;SDS011;8478;49.208;8.806;2023-03-23T00:54:56;5.40;;;5.00;;
2049;SDS011;8478;49.208;8.806;2023-03-23T00:57:21;5.97;;;5.47;;
2049;SDS011;8478;49.208;8.806;2023-03-23T00:59:49;6.03;;;5.63;;
2049;SDS011;8478;49.208;8.806;2023-03-23T01:02:15;5.60;;;5.17;;
2049;SDS011;8478;49.208;8.806;2023-03-23T01:04:43;6.03;;;5.53;;
2049;SDS011;8478;49.208;8.806;2023-03-23T01:07:09;5.40;;;5.00;;
2049;SDS011;8478;49.208;8.806;2023-03-23T01:09:37;5.27;;;4.77;;
2049;SDS011;8478;49.208;8.806;2023-03-23T01:12:09;6.03;;;5.53;;
2049;SDS011;8478;49.208;8.806;2023-03-23T01:14:35;6.47;;;6.00;;
2049;SDS011;8478;49.208;8.806;2023-03-23T01:17:02;5.50;;;5.10;;
2049;SDS011;8478;49.208;8.806;2023-03-23T01:19:28;5.03;;;4.73;;
2049;SDS011;8478;49.208;8.806;2023-03-23T01:21:53;5.93;;;5.50;;
2049;SDS011;8478;49.208;8.806;2023-03-23T01:24:19;6.00;;;5.60;;
2049;SDS011;8478;49.208;8.806;2023-03-23T01:26:44;5.90;;;5.40;;
2049;SDS011;8478;49.208;8.806;2023-03-23T01:29:10;5.80;;;5.30;;
2049;SDS011;8478;49.208;8.806;2023-03-23T01:31:36;6.10;;;5.60;;
2049;SDS011;8478;49.208;8.806;2023-03-23T01:34:02;6.40;;;5.20;;
2049;SDS011;8478;49.208;8.806;2023-03-23T01:36:28;5.83;;;5.33;;
2049;SDS011;8478;49.208;8.806;2023-03-23T01:38:57;5.93;;;5.43;;
2049;SDS011;8478;49.208;8.806;2023-03-23T01:41:25;5.53;;;5.13;;
2049;SDS011;8478;49.208;8.806;2023-03-23T01:46:25;5.37;;;4.97;;
2049;SDS011;8478;49.208;8.806;2023-03-23T01:48:51;6.00;;;5.60;;
2049;SDS011;8478;49.208;8.806;2023-03-23T01:51:17;5.00;;;4.63;;
2049;SDS011;8478;49.208;8.806;2023-03-23T01:53:51;5.40;;;5.00;;
2049;SDS011;8478;49.208;8.806;2023-03-23T01:56:21;4.63;;;4.33;;
2049;SDS011;8478;49.208;8.806;2023-03-23T01:58:51;4.40;;;4.10;;
2049;SDS011;8478;49.208;8.806;2023-03-23T02:01:19;4.33;;;4.03;;
2049;SDS011;8478;49.208;8.806;2023-03-23T02:03:46;4.37;;;4.13;;
2049;SDS011;8478;49.208;8.806;2023-03-23T02:06:13;5.17;;;4.77;;
2049;SDS011;8478;49.208;8.806;2023-03-23T02:08:40;5.17;;;4.67;;
2049;SDS011;8478;49.208;8.806;2023-03-23T02:11:19;4.87;;;4.53;;
2049;SDS011;8478;49.208;8.806;2023-03-23T02:13:46;5.00;;;4.60;;
2049;SDS011;8478;49.208;8.806;2023-03-23T02:30:29;4.57;;;4.30;;
2049;SDS011;8478;49.208;8.806;2023-03-23T02:36:02;4.27;;;3.87;;
2049;SDS011;8478;49.208;8.806;2023-03-23T02:38:37;4.37;;;3.97;;
2049;SDS011;8478;49.208;8.806;2023-03-23T02:41:26;4.20;;;3.90;;
2049;SDS011;8478;49.208;8.806;2023-03-23T02:43:55;4.40;;;4.10;;
2049;SDS011;8478;49.208;8.806;2023-03-23T02:46:22;4.07;;;3.77;;
2049;SDS011;8478;49.208;8.806;2023-03-23T02:48:50;4.50;;;4.20;;
2049;SDS011;8478;49.208;8.806;2023-03-23T02:51:19;3.67;;;3.47;;
2049;SDS011;8478;49.208;8.806;2023-03-23T02:53:46;3.63;;;3.43;;
2049;SDS011;8478;49.208;8.806;2023-03-23T02:56:15;4.00;;;3.80;;
2049;SDS011;8478;49.208;8.806;2023-03-23T02:58:42;3.93;;;3.73;;
2049;SDS011;8478;49.208;8.806;2023-03-23T03:03:52;3.93;;;3.70;;
2049;SDS011;8478;49.208;8.806;2023-03-23T03:12:05;3.60;;;3.40;;
2049;SDS011;8478;49.208;8.806;2023-03-23T03:14:45;3.90;;;3.70;;
2049;SDS011;8478;49.208;8.806;2023-03-23T03:17:24;3.47;;;3.27;;
2049;SDS011;8478;49.208;8.806;2023-03-23T03:19:59;3.70;;;3.50;;
2049;SDS011;8478;49.208;8.806;2023-03-23T03:22:32;3.40;;;3.20;;
2049;SDS011;8478;49.208;8.806;2023-03-23T03:25:02;3.30;;;3.10;;
2049;SDS011;8478;49.208;8.806;2023-03-23T03:27:30;3.53;;;3.33;;
2049;SDS011;8478;49.208;8.806;2023-03-23T03:29:57;3.70;;;3.50;;
2049;SDS011;8478;49.208;8.806;2023-03-23T03:32:29;4.07;;;3.70;;
2049;SDS011;8478;49.208;8.806;2023-03-23T03:35:01;4.20;;;3.90;;
2049;SDS011;8478;49.208;8.806;2023-03-23T03:37:32;3.73;;;3.53;;
2049;SDS011;8478;49.208;8.806;2023-03-23T03:40:03;4.10;;;3.70;;
2049;SDS011;8478;49.208;8.806;2023-03-23T03:42:40;3.20;;;3.00;;
2049;SDS011;8478;49.208;8.806;2023-03-23T03:45:08;3.77;;;3.57;;
2049;SDS011;8478;49.208;8.806;2023-03-23T03:47:35;4.00;;;3.80;;
2049;SDS011;8478;49.208;8.806;2023-03-23T03:50:01;4.03;;;3.83;;
2049;SDS011;8478;49.208;8.806;2023-03-23T03:52:27;3.77;;;3.47;;
2049;SDS011;8478;49.208;8.806;2023-03-23T03:54:54;3.53;;;3.33;;
2049;SDS011;8478;49.208;8.806;2023-03-23T03:57:20;3.20;;;3.00;;
2049;SDS011;8478;49.208;8.806;2023-03-23T03:59:46;3.40;;;3.10;;
2049;SDS011;8478;49.208;8.806;2023-03-23T04:02:12;3.40;;;3.20;;
2049;SDS011;8478;49.208;8.806;2023-03-23T04:04:41;3.60;;;3.40;;
2049;SDS011;8478;49.208;8.806;2023-03-23T04:07:08;3.70;;;3.50;;
2049;SDS011;8478;49.208;8.806;2023-03-23T04:09:36;3.47;;;3.27;;
2049;SDS011;8478;49.208;8.806;2023-03-23T04:12:03;3.50;;;3.30;;
2049;SDS011;8478;49.208;8.806;2023-03-23T04:14:29;4.20;;;3.97;;
2049;SDS011;8478;49.208;8.806;2023-03-23T04:16:55;3.87;;;3.67;;
2049;SDS011;8478;49.208;8.806;2023-03-23T04:19:22;6.70;;;3.67;;
2049;SDS011;8478;49.208;8.806;2023-03-23T04:21:48;3.60;;;3.30;;
2049;SDS011;8478;49.208;8.806;2023-03-23T04:24:14;3.67;;;3.47;;
2049;SDS011;8478;49.208;8.806;2023-03-23T04:26:40;3.23;;;3.03;;
2049;SDS011;8478;49.208;8.806;2023-03-23T04:29:07;3.57;;;3.37;;
2049;SDS011;8478;49.208;8.806;2023-03-23T04:31:33;3.50;;;3.30;;
2049;SDS011;8478;49.208;8.806;2023-03-23T04:34:00;3.47;;;3.27;;
2049;SDS011;8478;49.208;8.806;2023-03-23T04:36:27;3.90;;;3.70;;
2049;SDS011;8478;49.208;8.806;2023-03-23T04:38:58;3.80;;;3.60;;
2049;SDS011;8478;49.208;8.806;2023-03-23T04:41:25;3.60;;;3.40;;
2049;SDS011;8478;49.208;8.806;2023-03-23T04:43:52;5.67;;;5.37;;
2049;SDS011;8478;49.208;8.806;2023-03-23T04:46:21;4.00;;;3.80;;
2049;SDS011;8478;49.208;8.806;2023-03-23T04:48:47;3.70;;;3.50;;
2049;SDS011;8478;49.208;8.806;2023-03-23T04:51:13;3.60;;;3.40;;
2049;SDS011;8478;49.208;8.806;2023-03-23T04:53:39;4.43;;;4.03;;
2049;SDS011;8478;49.208;8.806;2023-03-23T04:56:05;4.00;;;3.80;;
2049;SDS011;8478;49.208;8.806;2023-03-23T04:58:32;3.40;;;3.20;;
2049;SDS011;8478;49.208;8.806;2023-03-23T05:01:00;3.77;;;3.57;;
2049;SDS011;8478;49.208;8.806;2023-03-23T05:03:26;4.03;;;3.83;;
2049;SDS011;8478;49.208;8.806;2023-03-23T05:05:52;4.00;;;3.80;;
2049;SDS011;8478;49.208;8.806;2023-03-23T05:08:21;3.83;;;3.63;;
2049;SDS011;8478;49.208;8.806;2023-03-23T05:11:00;4.40;;;4.00;;
2049;SDS011;8478;49.208;8.806;2023-03-23T05:13:28;4.07;;;3.77;;
2049;SDS011;8478;49.208;8.806;2023-03-23T05:15:53;4.07;;;3.87;;
2049;SDS011;8478;49.208;8.806;2023-03-23T05:18:19;4.53;;;4.00;;
2049;SDS011;8478;49.208;8.806;2023-03-23T05:20:46;4.60;;;4.30;;
2049;SDS011;8478;49.208;8.806;2023-03-23T05:23:12;4.53;;;4.27;;
2049;SDS011;8478;49.208;8.806;2023-03-23T05:25:38;4.23;;;4.03;;
2049;SDS011;8478;49.208;8.806;2023-03-23T05:28:07;3.80;;;3.30;;
2049;SDS011;8478;49.208;8.806;2023-03-23T05:30:37;4.10;;;3.90;;
2049;SDS011;8478;49.208;8.806;2023-03-23T05:33:03;3.90;;;3.70;;
2049;SDS011;8478;49.208;8.806;2023-03-23T05:35:30;4.40;;;4.10;;
2049;SDS011;8478;49.208;8.806;2023-03-23T05:37:56;4.07;;;3.67;;
2049;SDS011;8478;49.208;8.806;2023-03-23T05:40:22;3.93;;;3.73;;
2049;SDS011;8478;49.208;8.806;2023-03-23T05:42:50;4.33;;;4.03;;
2049;SDS011;8478;49.208;8.806;2023-03-23T05:45:16;4.43;;;4.13;;
2049;SDS011;8478;49.208;8.806;2023-03-23T05:47:43;4.03;;;3.83;;
2049;SDS011;8478;49.208;8.806;2023-03-23T05:50:08;4.00;;;3.80;;
2049;SDS011;8478;49.208;8.806;2023-03-23T05:52:35;4.43;;;4.23;;
2049;SDS011;8478;49.208;8.806;2023-03-23T05:55:02;4.37;;;3.97;;
2049;SDS011;8478;49.208;8.806;2023-03-23T05:57:28;4.83;;;4.43;;
2049;SDS011;8478;49.208;8.806;2023-03-23T05:59:54;3.87;;;3.57;;
2049;SDS011;8478;49.208;8.806;2023-03-23T06:02:21;4.40;;;4.10;;
2049;SDS011;8478;49.208;8.806;2023-03-23T06:04:48;3.83;;;3.63;;
2049;SDS011;8478;49.208;8.806;2023-03-23T06:07:14;3.90;;;3.70;;
2049;SDS011;8478;49.208;8.806;2023-03-23T06:09:40;4.00;;;3.80;;
2049;SDS011;8478;49.208;8.806;2023-03-23T06:12:07;4.30;;;3.90;;
2049;SDS011;8478;49.208;8.806;2023-03-23T06:14:33;4.50;;;4.20;;
2049;SDS011;8478;49.208;8.806;2023-03-23T06:16:59;4.40;;;4.20;;
2049;SDS011;8478;49.208;8.806;2023-03-23T06:19:25;4.17;;;3.97;;
2049;SDS011;8478;49.208;8.806;2023-03-23T06:21:51;4.50;;;4.30;;
2049;SDS011;8478;49.208;8.806;2023-03-23T06:24:19;4.40;;;4.10;;
2049;SDS011;8478;49.208;8.806;2023-03-23T06:26:45;4.30;;;4.10;;
2049;SDS011;8478;49.208;8.806;2023-03-23T06:29:10;4.80;;;4.50;;
2049;SDS011;8478;49.208;8.806;2023-03-23T06:31:41;4.27;;;4.07;;
2049;SDS011;8478;49.208;8.806;2023-03-23T06:34:09;4.43;;;4.23;;
2049;SDS011;8478;49.208;8.806;2023-03-23T06:36:36;4.03;;;3.83;;
2049;SDS011;8478;49.208;8.806;2023-03-23T06:39:03;4.30;;;4.10;;
2049;SDS011;8478;49.208;8.806;2023-03-23T06:41:33;3.93;;;3.73;;
2049;SDS011;8478;49.208;8.806;2023-03-23T06:43:59;4.63;;;4.33;;
2049;SDS011;8478;49.208;8.806;2023-03-23T06:46:26;4.43;;;4.10;;
2049;SDS011;8478;49.208;8.806;2023-03-23T06:48:52;4.17;;;3.97;;
2049;SDS011;8478;49.208;8.806;2023-03-23T06:51:19;4.30;;;4.00;;
2049;SDS011;8478;49.208;8.806;2023-03-23T06:53:45;4.27;;;4.03;;
2049;SDS011;8478;49.208;8.806;2023-03-23T06:56:11;3.90;;;3.70;;
2049;SDS011;8478;49.208;8.806;2023-03-23T06:58:37;3.97;;;3.77;;
2049;SDS011;8478;49.208;8.806;2023-03-23T07:01:03;4.40;;;4.10;;
2049;SDS011;8478;49.208;8.806;2023-03-23T07:03:29;3.80;;;3.60;;
2049;SDS011;8478;49.208;8.806;2023-03-23T07:05:56;4.40;;;4.10;;
2049;SDS011;8478;49.208;8.806;2023-03-23T07:08:22;4.00;;;3.80;;
2049;SDS011;8478;49.208;8.806;2023-03-23T07:10:50;4.37;;;4.17;;
2049;SDS011;8478;49.208;8.806;2023-03-23T07:13:17;4.50;;;4.30;;
2049;SDS011;8478;49.208;8.806;2023-03-23T07:15:43;4.47;;;4.17;;
2049;SDS011;8478;49.208;8.806;2023-03-23T07:18:09;3.90;;;3.70;;
2049;SDS011;8478;49.208;8.806;2023-03-23T07:20:35;4.87;;;4.10;;
2049;SDS011;8478;49.208;8.806;2023-03-23T07:23:01;4.90;;;4.60;;
2049;SDS011;8478;49.208;8.806;2023-03-23T07:25:27;4.60;;;4.30;;
2049;SDS011;8478;49.208;8.806;2023-03-23T07:27:53;3.77;;;3.57;;
2049;SDS011;8478;49.208;8.806;2023-03-23T07:30:18;4.30;;;4.10;;
2049;SDS011;8478;49.208;8.806;2023-03-23T07:32:44;4.50;;;4.27;;
2049;SDS011;8478;49.208;8.806;2023-03-23T07:35:10;4.30;;;4.00;;
2049;SDS011;8478;49.208;8.806;2023-03-23T07:37:36;4.67;;;4.23;;
2049;SDS011;8478;49.208;8.806;2023-03-23T07:40:02;4.10;;;3.80;;
2049;SDS011;8478;49.208;8.806;2023-03-23T07:42:43;4.37;;;4.07;;
2049;SDS011;8478;49.208;8.806;2023-03-23T07:45:10;4.00;;;3.80;;
2049;SDS011;8478;49.208;8.806;2023-03-23T07:47:37;4.20;;;4.00;;
2049;SDS011;8478;49.208;8.806;2023-03-23T07:50:04;4.23;;;4.03;;
2049;SDS011;8478;49.208;8.806;2023-03-23T07:52:31;4.67;;;4.30;;
2049;SDS011;8478;49.208;8.806;2023-03-23T07:54:58;4.30;;;4.00;;
2049;SDS011;8478;49.208;8.806;2023-03-23T07:57:24;4.27;;;4.07;;
2049;SDS011;8478;49.208;8.806;2023-03-23T07:59:49;4.73;;;4.43;;
2049;SDS011;8478;49.208;8.806;2023-03-23T08:02:15;4.10;;;3.80;;
2049;SDS011;8478;49.208;8.806;2023-03-23T08:04:41;4.30;;;4.00;;
2049;SDS011;8478;49.208;8.806;2023-03-23T08:07:07;4.60;;;4.40;;
2049;SDS011;8478;49.208;8.806;2023-03-23T08:09:33;4.30;;;4.10;;
2049;SDS011;8478;49.208;8.806;2023-03-23T08:11:59;4.60;;;4.30;;
2049;SDS011;8478;49.208;8.806;2023-03-23T08:14:24;4.07;;;3.80;;
2049;SDS011;8478;49.208;8.806;2023-03-23T08:16:52;4.43;;;4.13;;
2049;SDS011;8478;49.208;8.806;2023-03-23T08:19:20;3.70;;;3.50;;
2049;SDS011;8478;49.208;8.806;2023-03-23T08:21:46;4.30;;;4.10;;
2049;SDS011;8478;49.208;8.806;2023-03-23T08:24:11;4.43;;;4.13;;
2049;SDS011;8478;49.208;8.806;2023-03-23T08:26:38;4.57;;;4.27;;
2049;SDS011;8478;49.208;8.806;2023-03-23T08:29:04;4.67;;;4.37;;
2049;SDS011;8478;49.208;8.806;2023-03-23T08:31:30;4.33;;;4.13;;
2049;SDS011;8478;49.208;8.806;2023-03-23T08:33:59;4.20;;;4.00;;
2049;SDS011;8478;49.208;8.806;2023-03-23T08:36:25;3.83;;;3.63;;
2049;SDS011;8478;49.208;8.806;2023-03-23T08:38:52;3.93;;;3.73;;
2049;SDS011;8478;49.208;8.806;2023-03-23T08:41:18;4.50;;;4.27;;
2049;SDS011;8478;49.208;8.806;2023-03-23T08:43:44;4.40;;;4.10;;
2049;SDS011;8478;49.208;8.806;2023-03-23T08:46:11;3.87;;;3.67;;
2049;SDS011;8478;49.208;8.806;2023-03-23T08:48:37;4.20;;;4.00;;
2049;SDS011;8478;49.208;8.806;2023-03-23T08:51:04;4.83;;;4.53;;
2049;SDS011;8478;49.208;8.806;2023-03-23T08:53:31;4.77;;;4.47;;
2049;SDS011;8478;49.208;8.806;2023-03-23T08:56:04;4.50;;;4.20;;
2049;SDS011;8478;49.208;8.806;2023-03-23T08:58:31;4.40;;;4.10;;
2049;SDS011;8478;49.208;8.806;2023-03-23T09:00:57;3.77;;;3.53;;
2049;SDS011;8478;49.208;8.806;2023-03-23T09:03:23;4.30;;;4.10;;
2049;SDS011;8478;49.208;8.806;2023-03-23T09:05:49;4.53;;;4.30;;
2049;SDS011;8478;49.208;8.806;2023-03-23T09:08:15;4.27;;;3.97;;
2049;SDS011;8478;49.208;8.806;2023-03-23T09:10:40;4.50;;;4.20;;
2049;SDS011;8478;49.208;8.806;2023-03-23T09:13:06;5.60;;;3.80;;
2049;SDS011;8478;49.208;8.806;2023-03-23T09:15:32;4.57;;;4.27;;
2049;SDS011;8478;49.208;8.806;2023-03-23T09:17:58;4.57;;;4.20;;
2049;SDS011;8478;49.208;8.806;2023-03-23T09:20:26;4.23;;;4.00;;
2049;SDS011;8478;49.208;8.806;2023-03-23T09:22:53;4.20;;;4.00;;
2049;SDS011;8478;49.208;8.806;2023-03-23T09:25:21;3.87;;;3.63;;
2049;SDS011;8478;49.208;8.806;2023-03-23T09:27:50;4.23;;;3.90;;
2049;SDS011;8478;49.208;8.806;2023-03-23T09:30:21;4.17;;;3.87;;
2049;SDS011;8478;49.208;8.806;2023-03-23T09:32:52;4.07;;;3.77;;
2049;SDS011;8478;49.208;8.806;2023-03-23T09:35:18;4.80;;;4.50;;
2049;SDS011;8478;49.208;8.806;2023-03-23T09:37:46;5.37;;;4.33;;
2049;SDS011;8478;49.208;8.806;2023-03-23T09:40:14;4.33;;;4.13;;
2049;SDS011;8478;49.208;8.806;2023-03-23T09:51:07;4.70;;;4.30;;
2049;SDS011;8478;49.208;8.806;2023-03-23T09:53:43;4.43;;;4.13;;
2049;SDS011;8478;49.208;8.806;2023-03-23T09:56:14;4.17;;;3.87;;
2049;SDS011;8478;49.208;8.806;2023-03-23T09:58:43;4.10;;;3.80;;
2049;SDS011;8478;49.208;8.806;2023-03-23T10:01:42;4.20;;;4.00;;
2049;SDS011;8478;49.208;8.806;2023-03-23T10:07:22;4.57;;;4.27;;
2049;SDS011;8478;49.208;8.806;2023-03-23T10:09:52;4.50;;;4.20;;
2049;SDS011;8478;49.208;8.806;2023-03-23T10:15:12;4.73;;;4.43;;
2049;SDS011;8478;49.208;8.806;2023-03-23T10:17:47;4.83;;;4.50;;
2049;SDS011;8478;49.208;8.806;2023-03-23T10:22:49;4.50;;;4.10;;
2049;SDS011;8478;49.208;8.806;2023-03-23T10:25:21;4.53;;;4.30;;
2049;SDS011;8478;49.208;8.806;2023-03-23T10:32:58;4.90;;;4.60;;
2049;SDS011;8478;49.208;8.806;2023-03-23T10:35:33;4.40;;;4.10;;
2049;SDS011;8478;49.208;8.806;2023-03-23T10:38:04;4.57;;;4.27;;
2049;SDS011;8478;49.208;8.806;2023-03-23T10:40:38;4.57;;;4.30;;
2049;SDS011;8478;49.208;8.806;2023-03-23T10:43:13;4.37;;;4.17;;
2049;SDS011;8478;49.208;8.806;2023-03-23T10:45:40;5.57;;;5.07;;
2049;SDS011;8478;49.208;8.806;2023-03-23T10:50:45;4.60;;;4.30;;
2049;SDS011;8478;49.208;8.806;2023-03-23T10:53:21;4.13;;;3.90;;
2049;SDS011;8478;49.208;8.806;2023-03-23T10:55:50;4.87;;;4.57;;
2049;SDS011;8478;49.208;8.806;2023-03-23T10:58:25;4.43;;;4.20;;
2049;SDS011;8478;49.208;8.806;2023-03-23T11:00:56;4.27;;;4.07;;
2049;SDS011;8478;49.208;8.806;2023-03-23T11:03:25;5.23;;;4.83;;
2049;SDS011;8478;49.208;8.806;2023-03-23T11:06:06;4.37;;;4.07;;
2049;SDS011;8478;49.208;8.806;2023-03-23T11:08:35;4.67;;;4.37;;
2049;SDS011;8478;49.208;8.806;2023-03-23T11:11:17;4.67;;;4.33;;
2049;SDS011;8478;49.208;8.806;2023-03-23T11:13:47;4.20;;;4.00;;
2049;SDS011;8478;49.208;8.806;2023-03-23T11:16:22;4.07;;;3.80;;
2049;SDS011;8478;49.208;8.806;2023-03-23T11:18:53;3.93;;;3.73;;
2049;SDS011;8478;49.208;8.806;2023-03-23T11:21:20;4.17;;;3.97;;
2049;SDS011;8478;49.208;8.806;2023-03-23T11:23:49;4.10;;;3.90;;
2049;SDS011;8478;49.208;8.806;2023-03-23T11:26:31;3.83;;;3.60;;
2049;SDS011;8478;49.208;8.806;2023-03-23T11:31:46;4.10;;;3.70;;
2049;SDS011;8478;49.208;8.806;2023-03-23T11:34:20;3.87;;;3.67;;
2049;SDS011;8478;49.208;8.806;2023-03-23T11:36:58;3.90;;;3.70;;
2049;SDS011;8478;49.208;8.806;2023-03-23T11:39:28;4.07;;;3.87;;
2049;SDS011;8478;49.208;8.806;2023-03-23T11:42:01;4.27;;;4.00;;
2049;SDS011;8478;49.208;8.806;2023-03-23T11:44:41;4.47;;;4.27;;
2049;SDS011;8478;49.208;8.806;2023-03-23T11:55:34;4.03;;;3.83;;
2049;SDS011;8478;49.208;8.806;2023-03-23T11:58:19;4.10;;;3.90;;
2049;SDS011;8478;49.208;8.806;2023-03-23T12:00:55;3.80;;;3.60;;
2049;SDS011;8478;49.208;8.806;2023-03-23T12:03:30;4.40;;;4.10;;
2049;SDS011;8478;49.208;8.806;2023-03-23T12:06:01;3.90;;;3.70;;
2049;SDS011;8478;49.208;8.806;2023-03-23T12:11:21;4.10;;;3.90;;
2049;SDS011;8478;49.208;8.806;2023-03-23T12:19:37;4.20;;;4.00;;
2049;SDS011;8478;49.208;8.806;2023-03-23T12:22:22;4.60;;;4.30;;
2049;SDS011;8478;49.208;8.806;2023-03-23T12:28:11;4.43;;;4.13;;
2049;SDS011;8478;49.208;8.806;2023-03-23T12:41:49;4.20;;;4.00;;
2049;SDS011;8478;49.208;8.806;2023-03-23T12:44:23;4.00;;;3.73;;
2049;SDS011;8478;49.208;8.806;2023-03-23T12:50:29;4.80;;;4.50;;
2049;SDS011;8478;49.208;8.806;2023-03-23T12:53:11;3.97;;;3.73;;
2049;SDS011;8478;49.208;8.806;2023-03-23T12:58:34;3.87;;;3.63;;
2049;SDS011;8478;49.208;8.806;2023-03-23T13:03:58;4.30;;;4.10;;
2049;SDS011;8478;49.208;8.806;2023-03-23T13:09:47;4.23;;;4.00;;
2049;SDS011;8478;49.208;8.806;2023-03-23T13:11:46;4.50;;;4.30;;
2049;SDS011;8478;49.208;8.806;2023-03-23T13:22:39;4.10;;;3.90;;
2049;SDS011;8478;49.208;8.806;2023-03-23T13:28:01;4.20;;;4.00;;
2049;SDS011;8478;49.208;8.806;2023-03-23T13:30:28;4.63;;;4.30;;
2049;SDS011;8478;49.208;8.806;2023-03-23T13:33:01;4.97;;;4.70;;
2049;SDS011;8478;49.208;8.806;2023-03-23T13:35:33;4.47;;;4.17;;
2049;SDS011;8478;49.208;8.806;2023-03-23T13:38:02;4.97;;;4.57;;
2049;SDS011;8478;49.208;8.806;2023-03-23T13:40:42;4.53;;;4.27;;
2049;SDS011;8478;49.208;8.806;2023-03-23T13:43:09;5.90;;;4.87;;
2049;SDS011;8478;49.208;8.806;2023-03-23T13:45:45;5.40;;;5.00;;
2049;SDS011;8478;49.208;8.806;2023-03-23T13:50:49;5.17;;;4.77;;
2049;SDS011;8478;49.208;8.806;2023-03-23T13:56:05;5.40;;;5.00;;
2049;SDS011;8478;49.208;8.806;2023-03-23T13:58:48;6.20;;;4.60;;
2049;SDS011;8478;49.208;8.806;2023-03-23T14:01:33;4.90;;;4.57;;
2049;SDS011;8478;49.208;8.806;2023-03-23T14:04:03;5.80;;;5.30;;
2049;SDS011;8478;49.208;8.806;2023-03-23T14:06:35;5.30;;;4.90;;
2049;SDS011;8478;49.208;8.806;2023-03-23T14:09:13;5.23;;;4.83;;
2049;SDS011;8478;49.208;8.806;2023-03-23T14:12:17;4.90;;;4.60;;
2049;SDS011;8478;49.208;8.806;2023-03-23T14:14:42;5.40;;;4.77;;
2049;SDS011;8478;49.208;8.806;2023-03-23T14:17:23;4.70;;;4.40;;
2049;SDS011;8478;49.208;8.806;2023-03-23T14:19:54;4.90;;;4.60;;
2049;SDS011;8478;49.208;8.806;2023-03-23T14:22:25;4.93;;;4.53;;
2049;SDS011;8478;49.208;8.806;2023-03-23T14:24:59;5.20;;;4.80;;
2049;SDS011;8478;49.208;8.806;2023-03-23T14:27:26;4.97;;;4.67;;
2049;SDS011;8478;49.208;8.806;2023-03-23T14:29:59;4.60;;;4.30;;
2049;SDS011;8478;49.208;8.806;2023-03-23T14:32:27;5.00;;;4.60;;
2049;SDS011;8478;49.208;8.806;2023-03-23T14:34:56;5.40;;;5.00;;
2049;SDS011;8478;49.208;8.806;2023-03-23T14:37:22;5.23;;;4.83;;
2049;SDS011;8478;49.208;8.806;2023-03-23T14:39:49;5.13;;;4.73;;
2049;SDS011;8478;49.208;8.806;2023-03-23T14:42:18;5.03;;;4.63;;
2049;SDS011;8478;49.208;8.806;2023-03-23T14:44:53;5.07;;;4.67;;
2049;SDS011;8478;49.208;8.806;2023-03-23T14:50:06;4.83;;;4.53;;
2049;SDS011;8478;49.208;8.806;2023-03-23T14:52:47;6.07;;;5.57;;
2049;SDS011;8478;49.208;8.806;2023-03-23T14:55:14;5.83;;;5.33;;
2049;SDS011;8478;49.208;8.806;2023-03-23T14:57:42;5.80;;;5.40;;
2049;SDS011;8478;49.208;8.806;2023-03-23T15:00:13;5.67;;;5.17;;
2049;SDS011;8478;49.208;8.806;2023-03-23T15:02:40;4.93;;;4.50;;
2049;SDS011;8478;49.208;8.806;2023-03-23T15:05:14;5.30;;;4.90;;
2049;SDS011;8478;49.208;8.806;2023-03-23T15:07:53;6.37;;;5.80;;
2049;SDS011;8478;49.208;8.806;2023-03-23T15:10:22;5.63;;;5.20;;
2049;SDS011;8478;49.208;8.806;2023-03-23T15:12:49;5.73;;;5.33;;
2049;SDS011;8478;49.208;8.806;2023-03-23T15:15:30;5.90;;;5.50;;
2049;SDS011;8478;49.208;8.806;2023-03-23T15:17:58;5.20;;;4.80;;
2049;SDS011;8478;49.208;8.806;2023-03-23T15:22:53;6.00;;;5.50;;
2049;SDS011;8478;49.208;8.806;2023-03-23T15:25:21;6.30;;;5.83;;
2049;SDS011;8478;49.208;8.806;2023-03-23T15:27:54;6.53;;;5.93;;
2049;SDS011;8478;49.208;8.806;2023-03-23T15:32:47;5.90;;;5.50;;
2049;SDS011;8478;49.208;8.806;2023-03-23T15:35:17;6.13;;;5.73;;
2049;SDS011;8478;49.208;8.806;2023-03-23T15:37:47;6.10;;;5.70;;
2049;SDS011;8478;49.208;8.806;2023-03-23T15:40:19;6.17;;;5.70;;
2049;SDS011;8478;49.208;8.806;2023-03-23T15:42:50;7.10;;;6.57;;
2049;SDS011;8478;49.208;8.806;2023-03-23T15:45:37;5.93;;;5.53;;
2049;SDS011;8478;49.208;8.806;2023-03-23T15:48:12;6.83;;;6.23;;
2049;SDS011;8478;49.208;8.806;2023-03-23T15:50:39;7.57;;;6.60;;
2049;SDS011;8478;49.208;8.806;2023-03-23T15:53:15;6.13;;;5.73;;
2049;SDS011;8478;49.208;8.806;2023-03-23T15:55:45;6.73;;;6.23;;
2049;SDS011;8478;49.208;8.806;2023-03-23T15:58:11;7.20;;;6.80;;
2049;SDS011;8478;49.208;8.806;2023-03-23T16:00:38;6.10;;;5.60;;
2049;SDS011;8478;49.208;8.806;2023-03-23T16:03:05;6.20;;;5.60;;
2049;SDS011;8478;49.208;8.806;2023-03-23T16:05:35;6.10;;;5.63;;
2049;SDS011;8478;49.208;8.806;2023-03-23T16:08:01;6.60;;;6.10;;
2049;SDS011;8478;49.208;8.806;2023-03-23T16:10:27;6.40;;;5.90;;
2049;SDS011;8478;49.208;8.806;2023-03-23T16:12:53;6.67;;;6.17;;
2049;SDS011;8478;49.208;8.806;2023-03-23T16:15:19;6.40;;;5.90;;
2049;SDS011;8478;49.208;8.806;2023-03-23T16:17:45;6.87;;;6.30;;
2049;SDS011;8478;49.208;8.806;2023-03-23T16:20:18;7.20;;;6.60;;
2049;SDS011;8478;49.208;8.806;2023-03-23T16:22:45;6.23;;;5.73;;
2049;SDS011;8478;49.208;8.806;2023-03-23T16:25:12;6.07;;;5.57;;
2049;SDS011;8478;49.208;8.806;2023-03-23T16:27:39;6.30;;;5.90;;
2049;SDS011;8478;49.208;8.806;2023-03-23T16:30:15;7.23;;;6.50;;
2049;SDS011;8478;49.208;8.806;2023-03-23T16:32:46;6.87;;;6.33;;
2049;SDS011;8478;49.208;8.806;2023-03-23T16:35:12;6.80;;;6.30;;
2049;SDS011;8478;49.208;8.806;2023-03-23T16:37:43;6.00;;;5.60;;
2049;SDS011;8478;49.208;8.806;2023-03-23T16:40:12;6.87;;;6.37;;
2049;SDS011;8478;49.208;8.806;2023-03-23T16:42:39;6.53;;;6.00;;
2049;SDS011;8478;49.208;8.806;2023-03-23T16:45:05;8.00;;;6.17;;
2049;SDS011;8478;49.208;8.806;2023-03-23T16:47:32;6.27;;;5.87;;
2049;SDS011;8478;49.208;8.806;2023-03-23T16:49:58;6.30;;;5.80;;
2049;SDS011;8478;49.208;8.806;2023-03-23T16:52:23;7.20;;;6.50;;
2049;SDS011;8478;49.208;8.806;2023-03-23T16:54:49;6.70;;;6.23;;
2049;SDS011;8478;49.208;8.806;2023-03-23T16:57:15;7.47;;;6.77;;
2049;SDS011;8478;49.208;8.806;2023-03-23T16:59:41;7.33;;;6.70;;
2049;SDS011;8478;49.208;8.806;2023-03-23T17:02:08;7.40;;;6.80;;
2049;SDS011;8478;49.208;8.806;2023-03-23T17:04:35;7.27;;;6.77;;
2049;SDS011;8478;49.208;8.806;2023-03-23T17:07:02;6.30;;;5.90;;
2049;SDS011;8478;49.208;8.806;2023-03-23T17:09:28;6.63;;;6.13;;
2049;SDS011;8478;49.208;8.806;2023-03-23T17:11:53;6.43;;;5.93;;
2049;SDS011;8478;49.208;8.806;2023-03-23T17:14:20;6.30;;;5.80;;
2049;SDS011;8478;49.208;8.806;2023-03-23T17:16:46;7.10;;;6.50;;
2049;SDS011;8478;49.208;8.806;2023-03-23T17:19:12;11.77;;;7.73;;
2049;SDS011;8478;49.208;8.806;2023-03-23T17:21:38;10.60;;;8.77;;
2049;SDS011;8478;49.208;8.806;2023-03-23T17:24:05;10.10;;;6.93;;
2049;SDS011;8478;49.208;8.806;2023-03-23T17:26:31;8.40;;;7.57;;
2049;SDS011;8478;49.208;8.806;2023-03-23T17:28:57;8.80;;;7.93;;